Time;durP1;ratioP1;P1;durP2;ratioP2;P2;SDS_P1;SDS_P2;PMS_P1;PMS_P2;Temp;Humidity;BMP_temperature;BMP_pressure;BME280_temperature;BME280_humidity;BME280_pressure;Samples;Min_cycle;Max_cycle;Signal;HPM_P1;HPM_P2
2022/04/26 03:36:39;;;;;;;2.25;0.32;;;8.30;99.90;;;;;;5114028;28;20039;-76
2022/04/26 03:39:05;;;;;;;1.40;0.30;;;8.40;99.90;;;;;;5113458;28;20419;-76
2022/04/26 03:41:32;;;;;;;3.20;0.85;;;8.40;99.90;;;;;;5094891;28;20016;-75
2022/04/26 03:43:58;;;;;;;4.15;0.80;;;8.30;99.90;;;;;;5094915;28;20081;-75
2022/04/26 03:46:24;;;;;;;5.25;1.02;;;8.30;99.90;;;;;;5113346;28;20016;-76
2022/04/26 03:48:50;;;;;;;1.85;0.50;;;8.30;99.90;;;;;;5097633;28;20019;-76
2022/04/26 03:51:16;;;;;;;3.38;0.85;;;8.30;99.90;;;;;;5116938;28;20019;-75
2022/04/26 03:53:42;;;;;;;5.47;1.23;;;8.30;99.90;;;;;;5098333;28;20483;-76
2022/04/26 03:56:07;;;;;;;4.03;0.85;;;8.30;99.90;;;;;;5116646;28;20035;-76
2022/04/26 03:58:33;;;;;;;4.45;0.80;;;8.30;99.90;;;;;;5098331;28;20024;-76
2022/04/26 04:00:59;;;;;;;5.38;1.45;;;8.40;99.90;;;;;;5098138;28;20030;-76
2022/04/26 04:03:25;;;;;;;6.28;1.10;;;8.40;99.90;;;;;;5116348;28;20020;-76
2022/04/26 04:05:51;;;;;;;5.40;1.55;;;8.40;99.90;;;;;;5116693;28;20090;-76
2022/04/26 04:08:17;;;;;;;4.60;1.08;;;8.40;99.90;;;;;;5098195;28;20054;-76
2022/04/26 04:10:43;;;;;;;5.90;1.90;;;8.40;99.90;;;;;;5097985;28;20533;-75
2022/04/26 04:13:08;;;;;;;5.78;1.00;;;8.50;99.90;;;;;;5116392;28;20103;-75
2022/04/26 04:15:34;;;;;;;3.17;1.50;;;8.40;99.90;;;;;;5116250;28;20028;-75
2022/04/26 04:17:59;;;;;;;4.15;1.20;;;8.50;99.90;;;;;;5097903;28;20065;-75
2022/04/26 04:20:25;;;;;;;4.85;1.80;;;8.40;99.90;;;;;;5116121;28;20022;-75
2022/04/26 04:22:53;;;;;;;9.98;2.90;;;8.40;99.90;;;;;;5116299;28;20109;-75
2022/04/26 04:25:20;;;;;;;9.80;1.67;;;8.40;99.90;;;;;;5097635;28;20024;-75
2022/04/26 04:27:45;;;;;;;3.45;1.90;;;8.50;99.90;;;;;;5116595;28;20537;-75
2022/04/26 04:30:11;;;;;;;5.60;1.88;;;8.50;99.90;;;;;;5115888;28;20011;-75
2022/04/26 04:32:37;;;;;;;6.30;1.70;;;8.50;99.90;;;;;;5116051;28;20551;-75
2022/04/26 04:35:04;;;;;;;4.13;1.58;;;8.50;99.90;;;;;;5115894;28;20377;-75
2022/04/26 04:37:30;;;;;;;7.90;2.35;;;8.50;99.90;;;;;;5097501;28;20032;-75
2022/04/26 04:39:55;;;;;;;3.78;1.85;;;8.50;99.90;;;;;;5097514;28;20073;-75
2022/04/26 04:42:21;;;;;;;7.30;1.88;;;8.50;99.90;;;;;;5115604;28;20034;-75
2022/04/26 04:44:47;;;;;;;5.90;2.08;;;8.50;99.90;;;;;;5115896;28;20107;-75
2022/04/26 04:47:12;;;;;;;6.78;1.60;;;8.60;99.90;;;;;;5115720;28;20476;-75
2022/04/26 04:49:38;;;;;;;6.30;2.17;;;8.60;99.90;;;;;;5115549;28;20070;-75
2022/04/26 04:52:04;;;;;;;7.32;1.90;;;8.50;99.90;;;;;;5115469;28;20095;-75
2022/04/26 04:54:30;;;;;;;3.70;2.13;;;8.60;99.90;;;;;;5097251;28;20031;-75
2022/04/26 04:56:55;;;;;;;8.27;1.58;;;8.60;99.90;;;;;;5115622;28;20535;-76
2022/04/26 04:59:24;;;;;;;7.28;1.88;;;8.50;99.90;;;;;;5115257;28;20503;-76
2022/04/26 05:01:49;;;;;;;5.60;1.70;;;8.60;99.90;;;;;;5115384;28;20023;-75
2022/04/26 05:04:15;;;;;;;6.63;1.92;;;8.60;99.90;;;;;;5096914;28;20491;-75
2022/04/26 05:06:40;;;;;;;3.92;1.90;;;8.70;99.90;;;;;;5115335;28;20515;-75
2022/04/26 05:09:06;;;;;;;4.97;1.60;;;8.70;99.90;;;;;;5096987;28;20084;-76
2022/04/26 05:11:31;;;;;;;6.35;1.88;;;8.70;99.90;;;;;;5115100;28;20023;-75
2022/04/26 05:13:57;;;;;;;7.90;1.88;;;8.70;99.90;;;;;;5096884;28;20392;-75
2022/04/26 05:16:23;;;;;;;6.88;1.23;;;8.70;99.90;;;;;;5115031;28;20061;-75
2022/04/26 05:18:48;;;;;;;5.45;2.35;;;8.80;99.90;;;;;;5096788;28;20132;-75
2022/04/26 05:21:14;;;;;;;6.50;1.38;;;8.80;99.90;;;;;;5114894;28;20106;-75
2022/04/26 05:26:25;;;;;;;4.78;1.38;;;8.80;99.90;;;;;;5115156;28;20069;-75
2022/04/26 05:28:50;;;;;;;6.53;1.27;;;8.70;99.90;;;;;;5114864;28;20060;-75
2022/04/26 05:31:16;;;;;;;6.20;2.13;;;8.80;99.90;;;;;;5096391;28;20103;-75
2022/04/26 05:33:42;;;;;;;8.73;2.03;;;8.80;99.90;;;;;;5114798;28;20468;-75
2022/04/26 05:36:07;;;;;;;5.13;1.98;;;8.80;99.90;;;;;;5096487;28;20026;-75
2022/04/26 05:38:34;;;;;;;6.38;1.55;;;8.90;99.90;;;;;;5114963;28;20016;-75
2022/04/26 05:41:00;;;;;;;5.78;1.00;;;8.90;99.90;;;;;;5096374;28;20062;-75
2022/04/26 05:43:25;;;;;;;6.88;1.05;;;8.90;99.90;;;;;;5114569;28;20016;-75
2022/04/26 05:45:51;;;;;;;7.40;1.25;;;9.00;99.90;;;;;;5114890;28;20076;-75
2022/04/26 05:48:17;;;;;;;5.78;1.25;;;9.00;99.90;;;;;;5096461;28;20021;-75
2022/04/26 05:50:42;;;;;;;2.90;1.10;;;9.00;99.90;;;;;;5096294;28;20419;-75
2022/04/26 05:53:08;;;;;;;5.90;1.08;;;9.00;99.90;;;;;;5114576;28;20019;-75
2022/04/26 05:55:34;;;;;;;5.35;1.50;;;9.10;99.90;;;;;;5114873;28;20023;-76
2022/04/26 05:58:01;;;;;;;6.78;1.50;;;9.20;99.90;;;;;;5114509;28;20024;-76
2022/04/26 06:00:27;;;;;;;5.10;1.27;;;9.20;99.90;;;;;;5115109;28;20015;-75
2022/04/26 06:02:53;;;;;;;7.63;0.95;;;9.20;99.90;;;;;;5114399;28;20027;-76
2022/04/26 06:05:18;;;;;;;6.18;1.30;;;9.20;99.90;;;;;;5096326;28;20047;-75
2022/04/26 06:07:44;;;;;;;3.03;1.17;;;9.20;99.90;;;;;;5115045;28;20028;-75
2022/04/26 06:10:10;;;;;;;5.20;1.73;;;9.20;99.90;;;;;;5114724;28;20076;-75
2022/04/26 06:12:37;;;;;;;7.70;1.17;;;9.20;99.90;;;;;;5114293;28;20102;-75
2022/04/26 06:15:03;;;;;;;8.82;1.92;;;9.20;99.90;;;;;;5114262;28;20103;-75
2022/04/26 06:17:29;;;;;;;5.88;1.30;;;9.20;99.90;;;;;;5114433;28;20027;-75
2022/04/26 06:19:54;;;;;;;4.97;1.75;;;9.20;99.90;;;;;;5096109;28;20023;-75
2022/04/26 06:22:20;;;;;;;6.38;1.20;;;9.20;99.90;;;;;;5114252;28;20031;-75
2022/04/26 06:24:46;;;;;;;4.38;1.70;;;9.20;99.90;;;;;;5095621;28;20020;-76
2022/04/26 06:27:11;;;;;;;7.75;1.27;;;9.20;99.90;;;;;;5096028;28;20028;-75
2022/04/26 06:29:37;;;;;;;4.95;1.10;;;9.20;99.90;;;;;;5114199;28;20008;-75
2022/04/26 06:32:03;;;;;;;4.60;1.25;;;9.10;99.90;;;;;;5113766;28;20020;-75
2022/04/26 06:34:29;;;;;;;4.30;1.17;;;9.20;99.90;;;;;;5113856;28;20031;-75
2022/04/26 06:36:54;;;;;;;8.15;2.30;;;9.20;99.90;;;;;;5095613;28;20106;-75
2022/04/26 06:39:20;;;;;;;5.45;1.02;;;9.20;99.90;;;;;;5113889;28;20024;-75
2022/04/26 06:41:46;;;;;;;9.75;1.20;;;9.30;99.90;;;;;;5113752;28;20023;-75
2022/04/26 06:44:12;;;;;;;6.68;1.27;;;9.30;99.90;;;;;;5113994;28;20365;-75
2022/04/26 06:46:38;;;;;;;3.72;1.00;;;9.50;99.90;;;;;;5095553;28;20019;-75
2022/04/26 06:49:03;;;;;;;3.45;0.80;;;9.40;99.90;;;;;;5114057;28;20023;-75
2022/04/26 06:51:33;;;;;;;10.65;1.85;;;9.50;99.90;;;;;;5095525;28;20254;-76
2022/04/26 06:53:58;;;;;;;2.83;0.70;;;9.50;99.90;;;;;;5113919;28;20102;-76
2022/04/26 06:56:24;;;;;;;7.18;1.45;;;9.60;99.90;;;;;;5113942;28;20060;-76
2022/04/26 06:58:49;;;;;;;5.95;0.70;;;9.70;99.90;;;;;;5113621;28;20040;-75
2022/04/26 07:01:15;;;;;;;7.03;1.10;;;9.70;99.90;;;;;;5113674;28;20019;-75
2022/04/26 07:03:41;;;;;;;12.05;1.77;;;9.70;99.90;;;;;;5114400;28;20380;-75
2022/04/26 07:06:06;;;;;;;7.57;2.60;;;9.70;99.90;;;;;;5113999;28;20099;-75
2022/04/26 07:08:32;;;;;;;6.40;1.00;;;9.70;99.90;;;;;;5095659;28;20564;-75
2022/04/26 07:10:57;;;;;;;3.92;0.95;;;9.80;99.90;;;;;;5114137;28;20047;-75
2022/04/26 07:13:26;;;;;;;3.28;0.82;;;9.80;99.90;;;;;;5114148;28;20472;-75
2022/04/26 07:15:51;;;;;;;5.70;1.27;;;9.80;99.90;;;;;;5114051;28;20047;-76
2022/04/26 07:18:17;;;;;;;3.83;0.77;;;9.80;99.90;;;;;;5113973;28;20023;-76
2022/04/26 07:20:44;;;;;;;5.18;0.65;;;9.80;99.90;;;;;;5095835;28;20031;-76
2022/04/26 07:23:10;;;;;;;7.35;0.88;;;9.90;99.90;;;;;;5115431;28;20496;-75
2022/04/26 07:25:35;;;;;;;9.38;1.25;;;9.80;99.90;;;;;;5133697;22;20130;-77
2022/04/26 07:28:01;;;;;;;6.78;1.25;;;9.90;99.90;;;;;;5140330;27;20051;-77
2022/04/26 07:30:34;;;;;;;3.58;1.00;;;10.00;99.90;;;;;;5122143;27;20475;-77
2022/04/26 07:35:44;;;;;;;5.18;0.82;;;10.20;99.90;;;;;;5141028;27;20052;-78
2022/04/26 07:38:10;;;;;;;5.35;1.20;;;10.30;99.90;;;;;;5120984;27;20027;-76
2022/04/26 07:40:36;;;;;;;3.42;0.63;;;10.50;99.90;;;;;;5120741;27;20498;-77
2022/04/26 07:43:03;;;;;;;6.80;0.82;;;10.60;99.90;;;;;;5139704;27;20027;-78
2022/04/26 07:45:30;;;;;;;5.35;0.70;;;10.70;99.90;;;;;;5121462;27;20023;-77
2022/04/26 07:47:56;;;;;;;7.38;0.70;;;10.90;99.90;;;;;;5120617;27;20023;-76
2022/04/26 07:50:22;;;;;;;2.95;0.32;;;10.80;99.90;;;;;;5138066;27;20015;-76
2022/04/26 07:52:48;;;;;;;2.60;0.30;;;10.60;99.90;;;;;;5119270;27;20015;-77
2022/04/26 07:55:13;;;;;;;6.28;0.50;;;10.40;99.90;;;;;;5120882;27;20019;-77
2022/04/26 07:57:39;;;;;;;4.63;1.20;;;10.30;99.90;;;;;;5138455;27;20015;-77
2022/04/26 08:00:06;;;;;;;6.13;0.70;;;10.20;99.90;;;;;;5120148;27;20467;-77
2022/04/26 08:02:32;;;;;;;3.97;0.77;;;10.20;99.90;;;;;;5120045;27;20027;-77
2022/04/26 08:05:01;;;;;;;6.30;0.47;;;10.30;99.90;;;;;;5120077;27;20040;-77
2022/04/26 08:07:30;;;;;;;5.65;0.55;;;10.40;99.90;;;;;;5138684;27;20053;-78
2022/04/26 08:09:56;;;;;;;5.70;0.57;;;10.80;99.90;;;;;;5118933;27;20133;-77
2022/04/26 08:12:22;;;;;;;4.05;0.47;;;11.20;99.90;;;;;;5137871;27;20207;-78
2022/04/26 08:14:47;;;;;;;5.45;0.50;;;11.40;99.90;;;;;;5137970;27;20151;-77
2022/04/26 08:17:16;;;;;;;3.78;0.50;;;11.60;99.90;;;;;;5138032;27;20023;-78
2022/04/26 08:19:42;;;;;;;5.15;0.22;;;11.60;99.90;;;;;;5119058;27;20102;-76
2022/04/26 08:22:08;;;;;;;5.95;1.17;;;11.60;99.90;;;;;;5137640;27;20031;-76
2022/04/26 08:27:25;;;;;;;2.75;0.30;;;11.40;99.90;;;;;;5137750;27;20511;-76
2022/04/26 08:29:55;;;;;;;1.77;0.30;;;11.20;99.90;;;;;;5137845;27;20019;-75
2022/04/26 08:32:22;;;;;;;2.10;0.28;;;11.20;99.90;;;;;;5137978;27;20491;-77
2022/04/26 08:34:48;;;;;;;2.97;0.60;;;11.40;99.90;;;;;;5137105;27;20076;-77
2022/04/26 08:37:14;;;;;;;2.53;0.30;;;11.60;99.90;;;;;;5119798;27;20023;-77
2022/04/26 08:39:40;;;;;;;5.05;0.38;;;11.80;99.90;;;;;;5137486;27;20550;-77
2022/04/26 08:42:06;;;;;;;2.40;0.50;;;11.90;99.90;;;;;;5137645;27;20019;-77
2022/04/26 08:44:32;;;;;;;4.07;0.47;;;12.10;99.90;;;;;;5137120;27;20015;-77
2022/04/26 08:52:28;;;;;;;5.82;0.70;;;12.70;99.90;;;;;;5137269;27;20035;-77
2022/04/26 08:54:54;;;;;;;2.08;0.50;;;12.90;99.90;;;;;;5136961;27;20420;-76
2022/04/26 08:57:20;;;;;;;3.20;0.88;;;13.10;99.90;;;;;;5137030;27;20023;-77
2022/04/26 08:59:52;;;;;;;2.30;0.20;;;13.50;99.90;;;;;;5118535;27;20046;-78
2022/04/26 09:02:19;;;;;;;4.50;0.47;;;13.40;98.30;;;;;;5136933;27;20019;-77
2022/04/26 09:04:46;;;;;;;2.92;1.40;;;13.00;98.60;;;;;;5136649;27;20030;-77
2022/04/26 09:07:26;;;;;;;1.90;0.98;;;13.10;99.90;;;;;;5137003;27;20031;-77
2022/04/26 09:10:08;;;;;;;3.80;0.57;;;13.30;99.90;;;;;;5137437;27;20160;-77
2022/04/26 09:13:14;;;;;;;4.47;0.90;;;13.40;99.50;;;;;;5137428;27;20016;-77
2022/04/26 09:15:47;;;;;;;5.75;0.20;;;13.50;96.10;;;;;;5136958;27;20487;-78
2022/04/26 09:18:15;;;;;;;1.83;0.40;;;13.40;96.50;;;;;;5137076;27;20023;-77
2022/04/26 09:20:41;;;;;;;1.10;0.15;;;13.50;95.80;;;;;;5118387;27;20102;-77
2022/04/26 09:23:21;;;;;;;2.33;0.57;;;13.50;98.50;;;;;;5136822;27;20024;-77
2022/04/26 09:25:48;;;;;;;2.25;0.28;;;13.40;97.00;;;;;;5118346;27;20027;-78
2022/04/26 09:28:24;;;;;;;2.15;0.10;;;13.30;93.10;;;;;;5136798;27;20547;-77
2022/04/26 09:30:51;;;;;;;1.83;0.08;;;13.10;93.70;;;;;;5118378;27;20019;-77
2022/04/26 09:33:38;;;;;;;4.15;0.98;;;12.70;95.80;;;;;;5136898;27;20050;-77
2022/04/26 09:36:09;;;;;;;2.63;0.52;;;12.80;97.00;;;;;;5117799;27;20030;-77
2022/04/26 09:38:36;;;;;;;2.10;0.40;;;12.80;99.50;;;;;;5118054;27;20391;-77
2022/04/26 09:41:04;;;;;;;1.27;0.20;;;13.20;99.00;;;;;;5117597;27;20023;-77
2022/04/26 09:43:30;;;;;;;0.57;0.10;;;13.40;96.80;;;;;;5117735;27;20018;-78
2022/04/26 09:45:57;;;;;;;0.77;0.30;;;13.50;94.80;;;;;;5116731;27;20479;-78
2022/04/26 09:48:32;;;;;;;2.05;0.22;;;13.70;95.70;;;;;;5136075;27;20019;-77
2022/04/26 09:50:58;;;;;;;2.53;0.38;;;13.70;93.90;;;;;;5135989;27;20015;-78
2022/04/26 09:53:26;;;;;;;3.45;0.25;;;13.80;93.50;;;;;;5135908;27;20030;-78
2022/04/26 09:55:54;;;;;;;2.25;0.20;;;13.80;95.10;;;;;;5135998;27;20487;-77
2022/04/26 09:58:22;;;;;;;1.33;0.40;;;13.90;94.50;;;;;;5117336;27;20034;-77
2022/04/26 10:00:49;;;;;;;0.75;0.10;;;14.10;92.90;;;;;;5117257;27;20019;-77
2022/04/26 10:03:34;;;;;;;3.95;0.00;;;14.20;88.20;;;;;;5135754;27;20539;-77
2022/04/26 10:06:06;;;;;;;0.40;0.20;;;14.30;84.50;;;;;;5135717;27;20023;-77
2022/04/26 10:08:35;;;;;;;0.88;0.30;;;14.50;87.70;;;;;;5136069;27;20415;-77
2022/04/26 10:11:03;;;;;;;2.33;0.50;;;14.70;87.30;;;;;;5117190;27;20023;-78
2022/04/26 10:13:31;;;;;;;3.03;0.10;;;14.70;82.90;;;;;;5135456;27;20024;-77
2022/04/26 10:16:03;;;;;;;2.15;0.25;;;14.70;84.70;;;;;;5136155;27;20027;-78
2022/04/26 10:18:48;;;;;;;1.88;0.22;;;14.50;84.30;;;;;;5117192;27;20395;-78
2022/04/26 10:21:22;;;;;;;4.25;0.90;;;14.20;81.90;;;;;;5117693;27;20423;-77
2022/04/26 10:23:51;;;;;;;2.80;0.10;;;13.90;84.20;;;;;;5116697;27;20031;-77
2022/04/26 10:26:22;;;;;;;1.25;0.20;;;13.70;88.30;;;;;;5136156;27;20516;-77
2022/04/26 10:29:02;;;;;;;0.43;0.10;;;13.70;90.60;;;;;;5118111;28;20049;-78
2022/04/26 10:31:41;;;;;;;2.22;0.30;;;13.50;90.40;;;;;;5136974;27;20019;-78
2022/04/26 10:34:26;;;;;;;1.80;0.28;;;13.50;90.60;;;;;;5118186;28;20027;-78
2022/04/26 10:37:06;;;;;;;0.20;0.03;;;13.60;92.70;;;;;;5136344;27;20050;-78
2022/04/26 10:39:39;;;;;;;1.23;0.00;;;13.90;85.60;;;;;;5117972;28;20027;-78
2022/04/26 10:42:26;;;;;;;2.33;0.10;;;13.90;82.80;;;;;;5117620;28;20022;-78
2022/04/26 10:45:05;;;;;;;3.25;0.28;;;13.90;82.00;;;;;;5136338;28;20023;-77
2022/04/26 10:47:31;;;;;;;5.53;0.63;;;14.20;84.20;;;;;;5135078;28;20062;-77
2022/04/26 10:49:58;;;;;;;2.45;0.20;;;14.40;85.40;;;;;;5115811;28;20042;-76
2022/04/26 10:52:34;;;;;;;3.83;0.17;;;14.50;82.80;;;;;;5116032;28;20042;-76
2022/04/26 10:54:59;;;;;;;0.63;0.20;;;14.50;84.20;;;;;;5115899;28;20106;-75
2022/04/26 10:57:27;;;;;;;1.35;0.22;;;14.70;78.90;;;;;;5118165;27;20054;-75
2022/04/26 10:59:59;;;;;;;2.13;0.00;;;14.90;76.30;;;;;;5138258;27;20022;-75
2022/04/26 11:02:27;;;;;;;3.25;0.00;;;15.00;73.50;;;;;;5138432;27;20095;-75
2022/04/26 11:04:57;;;;;;;0.75;0.10;;;15.40;76.40;;;;;;5119924;27;20023;-75
2022/04/26 11:07:26;;;;;;;3.50;0.05;;;15.70;72.50;;;;;;5119653;27;20102;-75
2022/04/26 11:09:56;;;;;;;0.32;0.10;;;15.80;68.00;;;;;;5138381;27;20074;-75
2022/04/26 11:12:25;;;;;;;1.45;0.20;;;15.80;65.70;;;;;;5138282;27;20035;-75
2022/04/26 11:14:53;;;;;;;0.90;0.10;;;15.50;66.30;;;;;;5138090;27;20156;-75
2022/04/26 11:17:21;;;;;;;2.47;0.10;;;15.40;67.80;;;;;;5137903;27;20110;-75
2022/04/26 11:19:50;;;;;;;;;;;15.30;67.10;;;;;;5138287;27;20412;-75
2022/04/26 11:22:18;;;;;;;4.18;0.52;;;15.10;67.80;;;;;;5138402;27;19904;-75
2022/04/26 11:30:35;;;;;;;1.15;0.10;;;15.60;75.30;;;;;;5138578;27;20046;-75
2022/04/26 11:33:08;;;;;;;1.75;0.43;;;15.70;66.80;;;;;;5119628;27;20023;-75
2022/04/26 11:35:35;;;;;;;0.75;0.15;;;15.40;61.10;;;;;;5137651;27;20034;-75
2022/04/26 11:38:20;;;;;;;3.28;0.30;;;15.40;64.00;;;;;;5119139;27;20034;-75
2022/04/26 11:41:01;;;;;;;2.78;0.10;;;15.80;70.70;;;;;;5137523;27;20034;-75
2022/04/26 11:43:33;;;;;;;2.15;0.00;;;16.00;67.40;;;;;;5137480;27;20030;-76
2022/04/26 11:46:00;;;;;;;0.95;0.00;;;16.00;60.50;;;;;;5137659;27;20027;-75
2022/04/26 11:48:29;;;;;;;0.10;0.00;;;16.20;64.90;;;;;;5137401;27;20019;-75
2022/04/26 11:50:57;;;;;;;0.70;0.10;;;16.60;62.60;;;;;;5137670;27;20404;-75
2022/04/26 11:53:24;;;;;;;0.40;0.10;;;16.90;60.60;;;;;;5137264;27;20476;-75
2022/04/26 11:55:56;;;;;;;4.95;0.65;;;17.10;57.70;;;;;;5137186;27;20345;-74
2022/04/26 11:58:27;;;;;;;2.00;0.03;;;17.30;58.60;;;;;;5119045;27;20027;-75
2022/04/26 12:00:54;;;;;;;0.55;0.10;;;17.30;55.50;;;;;;5137711;27;20383;-75
2022/04/26 12:03:22;;;;;;;2.72;0.20;;;17.00;57.80;;;;;;5137641;27;20054;-75
2022/04/26 12:05:52;;;;;;;0.82;0.30;;;16.80;61.30;;;;;;5137226;27;20023;-75
2022/04/26 12:08:18;;;;;;;0.90;0.03;;;16.70;58.00;;;;;;5117790;27;20068;-74
2022/04/26 12:10:47;;;;;;;0.47;0.00;;;16.70;57.60;;;;;;5137276;27;20475;-75
2022/04/26 12:13:13;;;;;;;0.28;0.03;;;16.80;58.20;;;;;;5118493;27;20054;-75
2022/04/26 12:15:39;;;;;;;0.77;0.00;;;17.00;53.10;;;;;;5137494;27;20067;-75
2022/04/26 12:18:12;;;;;;;1.15;0.10;;;16.90;54.80;;;;;;5136823;27;20110;-75
2022/04/26 12:20:58;;;;;;;1.30;0.10;;;16.80;55.40;;;;;;5136873;27;20024;-75
2022/04/26 12:23:24;;;;;;;0.82;0.05;;;17.00;57.00;;;;;;5136821;27;20023;-75
2022/04/26 12:26:04;;;;;;;1.35;0.60;;;17.00;56.20;;;;;;5136508;27;20039;-75
2022/04/26 12:28:30;;;;;;;0.52;0.00;;;16.90;55.40;;;;;;5136556;27;20019;-75
2022/04/26 12:30:57;;;;;;;0.10;0.00;;;16.50;52.60;;;;;;5118050;27;20038;-75
2022/04/26 12:33:31;;;;;;;1.05;0.00;;;16.30;53.70;;;;;;5136822;27;20015;-75
2022/04/26 12:36:01;;;;;;;2.80;0.50;;;16.20;51.70;;;;;;5137106;27;20023;-75
2022/04/26 12:38:27;;;;;;;0.52;0.00;;;16.40;52.60;;;;;;5136497;27;20019;-75
2022/04/26 12:41:06;;;;;;;0.30;0.00;;;16.70;53.80;;;;;;5136558;27;20160;-75
2022/04/26 12:43:33;;;;;;;2.92;0.08;;;16.70;50.80;;;;;;5136224;27;20106;-75
2022/04/26 12:46:04;;;;;;;1.95;0.00;;;17.00;55.70;;;;;;5136721;27;20023;-75
2022/04/26 12:51:27;;;;;;;0.55;0.10;;;17.80;56.30;;;;;;5136509;27;20152;-75
2022/04/26 12:53:54;;;;;;;1.77;0.05;;;18.30;48.70;;;;;;5117734;27;20110;-75
2022/04/26 12:56:21;;;;;;;2.58;0.35;;;18.70;51.70;;;;;;5117709;27;20424;-75
2022/04/26 12:58:48;;;;;;;1.13;0.15;;;18.70;44.80;;;;;;5136396;27;20051;-75
2022/04/26 13:01:15;;;;;;;1.85;0.10;;;18.70;45.80;;;;;;5117533;27;20046;-75
2022/04/26 13:03:42;;;;;;;2.17;0.00;;;18.70;45.00;;;;;;5118042;27;20110;-75
2022/04/26 13:06:14;;;;;;;0.65;0.00;;;18.80;47.50;;;;;;5135931;27;20027;-75
2022/04/26 13:08:42;;;;;;;0.80;0.10;;;18.90;47.70;;;;;;5135942;27;20083;-75
2022/04/26 13:11:08;;;;;;;2.25;0.10;;;19.20;50.90;;;;;;5136294;27;20468;-75
2022/04/26 13:13:36;;;;;;;0.73;0.00;;;19.10;45.70;;;;;;5135966;27;20030;-75
2022/04/26 13:16:02;;;;;;;0.90;0.28;;;18.90;48.10;;;;;;5136351;27;20031;-74
2022/04/26 13:18:28;;;;;;;0.20;0.00;;;19.10;48.10;;;;;;5135663;27;20029;-75
2022/04/26 13:20:56;;;;;;;2.55;0.10;;;19.10;46.50;;;;;;5135536;27;20027;-75
2022/04/26 13:23:22;;;;;;;1.85;0.28;;;18.90;47.00;;;;;;5117235;27;20391;-74
2022/04/26 13:25:48;;;;;;;1.95;0.00;;;18.90;48.40;;;;;;5135733;27;20038;-75
2022/04/26 13:28:14;;;;;;;0.95;0.22;;;19.00;46.80;;;;;;5135500;27;20019;-75
2022/04/26 13:30:41;;;;;;;0.68;0.30;;;19.10;44.20;;;;;;5135542;27;20019;-75
2022/04/26 13:33:07;;;;;;;0.65;0.10;;;19.10;47.60;;;;;;5135455;27;20047;-74
2022/04/26 13:35:33;;;;;;;0.30;0.00;;;19.30;47.40;;;;;;5135558;27;20156;-74
2022/04/26 13:37:59;;;;;;;0.68;0.00;;;19.40;45.60;;;;;;5135948;27;20039;-75
2022/04/26 13:40:26;;;;;;;3.10;0.32;;;19.10;47.10;;;;;;5135397;27;20110;-75
2022/04/26 13:42:51;;;;;;;2.38;0.55;;;19.20;46.40;;;;;;5116769;27;20023;-74
2022/04/26 13:45:17;;;;;;;0.85;0.05;;;19.20;45.00;;;;;;5135222;27;20030;-74
2022/04/26 13:47:45;;;;;;;0.13;0.00;;;19.50;45.40;;;;;;5135276;27;20024;-74
2022/04/26 13:50:12;;;;;;;0.40;0.00;;;19.80;46.90;;;;;;5116840;27;20026;-75
2022/04/26 13:52:38;;;;;;;0.30;0.00;;;20.00;46.10;;;;;;5135407;27;20015;-75
2022/04/26 13:55:05;;;;;;;0.88;0.00;;;19.60;46.40;;;;;;5116660;27;20023;-74
2022/04/26 13:57:33;;;;;;;0.85;0.10;;;18.90;45.50;;;;;;5135306;27;20024;-74
2022/04/26 13:59:59;;;;;;;3.00;0.17;;;18.50;43.90;;;;;;5135089;27;20027;-74
2022/04/26 14:02:25;;;;;;;0.85;0.00;;;18.10;47.50;;;;;;5116409;27;20433;-75
2022/04/26 14:04:51;;;;;;;1.45;0.00;;;18.10;49.90;;;;;;5134730;27;20046;-74
2022/04/26 14:07:17;;;;;;;1.65;0.20;;;18.50;48.50;;;;;;5134829;27;20474;-75
2022/04/26 14:09:43;;;;;;;1.25;0.10;;;18.70;50.20;;;;;;5134786;27;20019;-75
2022/04/26 14:12:11;;;;;;;0.65;0.00;;;19.20;48.20;;;;;;5134703;27;20023;-75
2022/04/26 14:22:53;;;;;;;3.40;0.30;;;19.80;45.60;;;;;;5135529;27;20088;-74
2022/04/26 14:25:19;;;;;;;1.40;0.00;;;19.80;46.70;;;;;;5134320;27;20023;-74
2022/04/26 14:27:49;;;;;;;1.85;0.30;;;20.00;48.00;;;;;;5134486;27;20019;-74
2022/04/26 14:30:16;;;;;;;1.85;0.00;;;19.90;46.60;;;;;;5134858;27;20376;-74
2022/04/26 14:32:43;;;;;;;0.30;0.00;;;19.90;47.70;;;;;;5133789;27;20052;-74
2022/04/26 14:35:10;;;;;;;1.63;0.08;;;20.20;48.80;;;;;;5134303;27;20031;-75
2022/04/26 14:37:36;;;;;;;1.17;0.17;;;20.70;46.70;;;;;;5134379;27;20020;-74
2022/04/26 14:40:03;;;;;;;0.47;0.00;;;20.90;47.70;;;;;;5134493;28;20368;-74
2022/04/26 14:42:29;;;;;;;1.00;0.10;;;21.20;47.40;;;;;;5134546;28;20030;-74
2022/04/26 14:44:55;;;;;;;1.85;0.00;;;21.10;44.70;;;;;;5134223;28;20023;-74
2022/04/26 14:47:21;;;;;;;1.08;0.20;;;20.10;46.80;;;;;;5116160;28;20440;-74
2022/04/26 14:49:49;;;;;;;2.10;0.08;;;19.70;46.50;;;;;;5134250;28;20057;-74
2022/04/26 14:52:21;;;;;;;1.17;0.00;;;19.40;47.10;;;;;;5115847;28;20019;-74
2022/04/26 14:54:50;;;;;;;0.90;0.20;;;19.10;49.00;;;;;;5134236;28;20387;-74
2022/04/26 14:57:18;;;;;;;;;;;18.90;49.70;;;;;;5117134;28;20030;-78
2022/04/26 14:59:47;;;;;;;0.63;0.20;;;18.70;50.20;;;;;;5136790;28;19904;-78
2022/04/26 15:02:17;;;;;;;2.22;0.00;;;18.30;51.00;;;;;;5136111;28;20033;-78
2022/04/26 15:04:43;;;;;;;5.65;0.47;;;18.50;51.70;;;;;;5136259;28;20072;-78
2022/04/26 15:07:09;;;;;;;1.80;0.28;;;19.40;52.40;;;;;;5117536;28;20016;-78
2022/04/26 15:09:44;;;;;;;0.55;0.10;;;20.00;50.00;;;;;;5118180;28;20083;-78
2022/04/26 15:17:48;;;;;;;0.80;0.20;;;21.40;44.90;;;;;;5136257;28;20088;-76
2022/04/26 15:20:15;;;;;;;0.77;0.20;;;21.70;44.70;;;;;;5134796;28;20030;-78
2022/04/26 15:22:41;;;;;;;2.78;0.30;;;22.10;45.40;;;;;;5135984;28;20471;-78
2022/04/26 15:25:09;;;;;;;0.65;0.10;;;22.70;44.30;;;;;;5115456;28;20484;-78
2022/04/26 15:27:37;;;;;;;3.60;0.35;;;23.20;42.20;;;;;;5117857;28;20023;-78
2022/04/26 15:30:05;;;;;;;1.13;0.27;;;22.80;43.20;;;;;;5116366;28;20100;-77
2022/04/26 15:32:31;;;;;;;3.10;0.43;;;22.10;44.10;;;;;;5135647;28;20379;-78
2022/04/26 15:34:56;;;;;;;0.68;0.13;;;22.10;45.00;;;;;;5135880;28;20023;-78
2022/04/26 15:37:25;;;;;;;1.55;0.10;;;22.60;43.20;;;;;;5115834;28;20119;-78
2022/04/26 15:39:51;;;;;;;;;;;22.80;41.80;;;;;;5135695;28;20072;-77
2022/04/26 15:42:18;;;;;;;0.60;0.10;;;24.20;42.30;;;;;;5116076;27;19904;-77
2022/04/26 15:44:44;;;;;;;3.40;0.20;;;24.00;41.70;;;;;;5118823;27;20026;-77
2022/04/26 15:47:10;;;;;;;1.65;0.10;;;23.90;40.60;;;;;;5119258;27;20026;-77
2022/04/26 15:49:35;;;;;;;0.65;0.13;;;24.10;39.60;;;;;;5119352;27;20015;-77
2022/04/26 15:52:01;;;;;;;1.40;0.00;;;25.00;39.30;;;;;;5139595;27;20023;-78
2022/04/26 15:54:27;;;;;;;2.63;0.05;;;24.50;40.10;;;;;;5139102;27;20472;-79
2022/04/26 15:56:52;;;;;;;2.00;0.35;;;25.10;40.40;;;;;;5139449;27;20019;-79
2022/04/26 15:59:18;;;;;;;0.73;0.10;;;25.10;39.40;;;;;;5139140;27;20034;-78
2022/04/26 16:01:43;;;;;;;1.80;0.00;;;25.40;36.60;;;;;;5139005;27;20030;-79
2022/04/26 16:04:10;;;;;;;1.08;0.10;;;25.50;37.80;;;;;;5121278;27;20110;-78
2022/04/26 16:06:37;;;;;;;1.98;0.10;;;25.50;37.30;;;;;;5139571;27;20020;-78
2022/04/26 16:22:43;;;;;;;1.98;0.20;;;25.20;36.70;;;;;;5137987;27;20034;-81
2022/04/26 16:25:09;;;;;;;0.88;0.10;;;25.60;36.30;;;;;;5119866;27;20484;-78
2022/04/26 16:27:34;;;;;;;0.63;0.00;;;25.60;36.70;;;;;;5138012;27;20026;-78
2022/04/26 16:30:01;;;;;;;0.77;0.32;;;25.60;36.00;;;;;;5138097;27;20011;-77
2022/04/26 16:32:30;;;;;;;3.70;0.10;;;25.70;36.30;;;;;;5138492;27;20023;-77
2022/04/26 16:34:57;;;;;;;;;;;25.50;35.80;;;;;;5120471;27;20392;-77
2022/04/26 16:37:23;;;;;;;1.65;0.10;;;25.40;35.30;;;;;;5135893;27;20330;-77
2022/04/26 16:39:49;;;;;;;0.82;0.10;;;25.60;36.40;;;;;;5136360;27;20061;-77
2022/04/26 16:42:15;;;;;;;1.60;0.40;;;25.80;36.50;;;;;;5135641;27;20425;-77
2022/04/26 16:44:41;;;;;;;2.83;0.00;;;25.70;36.00;;;;;;5135857;27;20475;-77
2022/04/26 16:47:07;;;;;;;1.48;0.10;;;25.60;36.10;;;;;;5136609;27;20027;-77
2022/04/26 16:49:33;;;;;;;2.15;0.15;;;25.10;35.50;;;;;;5137516;27;20023;-77
2022/04/26 16:51:59;;;;;;;0.10;0.00;;;24.50;36.50;;;;;;5136605;27;20391;-74
2022/04/26 16:54:24;;;;;;;0.25;0.20;;;24.30;37.60;;;;;;5135881;27;20050;-75
2022/04/26 16:56:50;;;;;;;0.88;0.30;;;23.60;37.50;;;;;;5117737;27;20024;-75
2022/04/26 16:59:17;;;;;;;0.20;0.00;;;22.80;38.50;;;;;;5136232;27;20086;-74
2022/04/26 17:01:44;;;;;;;0.93;0.15;;;21.80;39.40;;;;;;5136220;27;20031;-75
2022/04/26 17:04:12;;;;;;;5.22;0.35;;;20.70;40.70;;;;;;5117475;27;20479;-75
2022/04/26 17:06:41;;;;;;;;;;;19.60;43.70;;;;;;5136109;27;20035;-75
2022/04/26 17:09:07;;;;;;;;;;;18.60;45.70;;;;;;5136296;27;19903;-75
2022/04/26 17:11:42;;;;;;;1.70;0.10;;;17.80;47.80;;;;;;5135793;27;19903;-75
2022/04/26 17:14:09;;;;;;;0.88;0.25;;;17.20;49.10;;;;;;5135892;27;20155;-75
2022/04/26 17:16:34;;;;;;;0.35;0.20;;;16.70;50.90;;;;;;5117243;27;20556;-75
2022/04/26 17:19:00;;;;;;;1.10;0.20;;;16.20;50.40;;;;;;5117571;27;20019;-75